Afric Star — A8KJ8 — position and weather

sailwx.info

Track history (hours):
 
Tides and Currents Weather Stations Pressure Air Temp Water Temp Dewpoint Dewpoint Depression Visibility Wind Speed Wind Dir Waves Ship Positions

Afric Star

Last reported at 2017-Jan-21 17:33 UTC. Time now 2017-Jan-21 19:33 UTC.
Position N 41°32' W 027°26'.

Length 158 m; draft 8.9 m.

Type: Cargo ship. MMSI: 636013069.

Date/timePositionNaut miles runAvg speedWind from/ knotsBaromVisibWave heightAir tempDewpointWater temp
2017-Jan-21 17:33N 41°32' W 027°26'1616.2
2017-Jan-21 16:33N 41°24' W 027°45'1816.2
2017-Jan-21 15:26N 41°15' W 028°06'1416.2
2017-Jan-21 14:33N 41°08' W 028°22'1616.2
2017-Jan-21 13:33N 40°60' W 028°41'1916.4
2017-Jan-21 12:25N 40°51' W 029°03'1416.5
2017-Jan-21 11:33N 40°44' W 029°19'1816.6
2017-Jan-21 10:29N 40°35' W 029°40'1516.2
2017-Jan-21 09:34N 40°27' W 029°57'1716.2
2017-Jan-21 08:29N 40°19' W 030°17'1516.0
2017-Jan-21 07:33N 40°11' W 030°33'5116.3
2017-Jan-21 04:27N 39°45' W 031°30'  
Track history (hours):
 
Tides and Currents Weather Stations Pressure Air Temp Water Temp Dewpoint Dewpoint Depression Visibility Wind Speed Wind Dir Waves Ship Positions

Afric Star

Last reported at 2017-Jan-21 17:33 UTC. Time now 2017-Jan-21 19:33 UTC.
Position N 41°32' W 027°26'.

Length 158 m; draft 8.9 m.

Type: Cargo ship. MMSI: 636013069.

Date/timePositionNaut miles runAvg speedWind from/ knotsBaromVisibWave heightAir tempDewpointWater temp
2017-Jan-21 17:33N 41°32' W 027°26'1616.2
2017-Jan-21 16:33N 41°24' W 027°45'1816.2
2017-Jan-21 15:26N 41°15' W 028°06'1416.2
2017-Jan-21 14:33N 41°08' W 028°22'1616.2
2017-Jan-21 13:33N 40°60' W 028°41'1916.4
2017-Jan-21 12:25N 40°51' W 029°03'1416.5
2017-Jan-21 11:33N 40°44' W 029°19'1816.6
2017-Jan-21 10:29N 40°35' W 029°40'1516.2
2017-Jan-21 09:34N 40°27' W 029°57'1716.2
2017-Jan-21 08:29N 40°19' W 030°17'1516.0
2017-Jan-21 07:33N 40°11' W 030°33'5116.3
2017-Jan-21 04:27N 39°45' W 031°30'  

Dump ship's entire track history